Latest Weather Observations for Kingfish B

IDV60801

Issued at 1:02 pm EST Saturday 24 June 2017 (issued every 30 minutes, with the page automatically refreshed every 10 minutes)

About weather observations | Map of weather stations | Latest weather observations for VIC | Other Formats
Station Details ID: 400139 Name: KINGFISH B (PLATFORM) Lat: -38.60 Lon: 148.19 Height: 31.4 m
Data from the previous 72 hours. | See also: Recent months for locations in Victoria
Date/Time
EST
Temp
°C
App
Temp
°C
Dew
Point
°C
Rel
Hum
%
Delta-T
°C
Wind Press
QNH
hPa
Press
MSL
hPa
Rain since
9am
mm
Dir  Spd
km/h
Gust
km/h
Spd
kts
Gust
kts
24/11:50am 11.2 4.1 5.3 67 2.7 SW 32 39 17 21 1014.9 - -
24/11:40am 11.5 3.5 5.5 66 2.8 SW 37 44 20 24 1014.9 - -
24/11:30am 12.0 5.2 5.1 62 3.2 SW 30 46 16 25 1015.4 - -
24/11:20am 12.4 5.7 5.4 62 3.3 WSW 30 43 16 23 1015.0 - -
24/11:10am 12.4 5.9 4.6 59 3.6 WSW 28 35 15 19 1015.0 - -
24/11:00am 12.4 6.1 3.9 56 3.8 WSW 26 33 14 18 1015.2 - -
24/10:50am 12.3 6.0 3.6 55 3.9 WSW 26 32 14 17 1015.3 - -
24/10:40am 12.3 5.9 3.3 54 4.0 SW 26 37 14 20 1015.4 - -
24/10:30am 12.2 5.1 3.5 55 3.9 WSW 30 39 16 21 1015.4 - -
24/10:20am 12.3 4.8 3.7 55 3.8 WSW 32 41 17 22 1015.5 - -
24/10:10am 12.2 4.4 3.0 53 4.0 WSW 33 41 18 22 1015.5 - -
24/10:00am 11.8 4.1 3.2 55 3.8 WSW 33 41 18 22 1015.6 - -
24/09:50am 10.8 5.1 4.7 66 2.8 SW 24 39 13 21 1016.3 - -
24/09:40am 11.6 4.2 4.0 59 3.4 SW 32 41 17 22 1016.3 - -
24/09:30am 12.3 4.8 3.3 54 4.0 SW 32 44 17 24 1015.9 - -
24/09:20am 11.4 4.3 3.7 59 3.4 SW 30 41 16 22 1016.0 - -
24/09:10am 11.2 2.5 4.0 61 3.2 SSW 39 54 21 29 1016.8 - -
24/09:00am 12.6 4.6 3.8 55 4.0 SW 35 56 19 30 1016.1 - -
24/08:50am 12.6 6.5 3.0 52 4.2 WSW 24 33 13 18 1015.8 - -
24/08:40am 12.4 7.1 3.0 52 4.1 SW 20 32 11 17 1015.9 - -
24/08:30am 12.8 7.0 2.3 49 4.6 SW 22 32 12 17 1016.0 - -
24/08:20am 12.6 6.8 2.4 50 4.4 SW 22 35 12 19 1015.7 - -
24/08:10am 12.3 7.1 2.7 52 4.2 SW 19 28 10 15 1015.6 - -
24/08:00am 11.8 6.1 3.1 55 3.8 SW 22 28 12 15 1015.5 - -
24/07:50am 11.5 6.1 2.6 54 3.9 WSW 20 30 11 16 1015.5 - -
24/07:40am 11.7 5.6 2.6 53 4.0 SW 24 32 13 17 1015.3 - -
24/07:30am 11.6 4.3 2.6 54 3.9 SW 30 37 16 20 1015.4 - -
24/07:20am 11.1 5.4 2.8 56 3.6 SW 22 43 12 23 1015.4 - -
24/07:10am 10.4 4.7 3.0 60 3.2 SSW 22 30 12 16 1015.6 - -
24/07:00am 10.2 2.4 2.9 60 3.1 SSW 33 48 18 26 1015.9 - -
24/06:50am 10.3 0.1 3.1 61 3.1 SSW 46 56 25 30 1016.0 - -
24/06:40am 10.3 4.2 2.5 58 3.3 SSW 24 37 13 20 1015.2 - -
24/06:30am 10.3 2.0 2.2 57 3.4 SSW 35 48 19 26 1015.4 - -
24/06:20am 10.4 2.7 2.5 58 3.4 SSW 32 39 17 21 1015.1 - -
24/06:00am 10.8 2.5 2.4 56 3.6 SSW 35 44 19 24 1014.9 - -
24/05:50am 11.1 2.1 2.4 55 3.7 SSW 39 46 21 25 1014.7 - -
24/05:40am 11.1 1.2 1.9 53 3.9 SSW 43 54 23 29 1014.6 - -
24/05:30am 11.2 0.7 1.6 51 4.1 SSW 46 54 25 29 1014.6 - -
24/05:20am 11.4 1.6 2.5 54 3.8 SSW 43 52 23 28 1014.0 - -
24/05:10am 11.4 1.6 2.0 52 4.0 SSW 43 48 23 26 1013.7 - -
24/05:00am 11.5 2.1 2.5 54 3.9 SSW 41 54 22 29 1013.9 - -
24/04:50am 11.5 1.8 2.8 55 3.8 SSW 43 57 23 31 1013.6 - -
24/04:40am 11.5 2.2 3.0 56 3.7 SSW 41 54 22 29 1013.7 - -
24/04:30am 11.4 1.5 2.6 54 3.8 SSW 44 57 24 31 1013.5 - -
24/04:20am 11.4 1.7 2.7 55 3.8 SSW 43 56 23 30 1013.4 - -
24/04:10am 11.4 1.5 2.9 56 3.7 SSW 44 57 24 31 1013.4 - -
24/04:00am 11.5 1.7 3.1 56 3.7 SSW 44 56 24 30 1013.2 - -
24/03:50am 11.5 1.3 3.2 56 3.6 SSW 46 56 25 30 1013.2 - -
24/03:40am 11.5 1.4 3.6 58 3.5 SSW 46 56 25 30 1013.0 - -
24/03:30am 11.5 1.4 3.6 58 3.5 SSW 46 57 25 31 1012.7 - -
24/03:20am 11.3 1.3 4.4 62 3.1 SSW 46 56 25 30 1012.5 - -
24/03:10am 11.3 -0.2 4.6 63 3.0 SSW 54 70 29 38 1012.9 - -
24/03:00am 11.8 1.4 4.2 59 3.4 SSW 48 61 26 33 1012.6 - -
24/02:50am 11.7 0.9 4.2 60 3.4 SW 50 70 27 38 1012.1 - -
24/02:40am 11.5 1.2 4.7 63 3.1 SW 48 57 26 31 1012.1 - -
24/02:30am 11.4 0.8 5.3 66 2.8 SSW 50 63 27 34 1012.6 - -
24/02:20am 11.5 1.0 5.7 67 2.7 SSW 50 69 27 37 1012.6 - -
24/02:10am 11.7 0.4 5.6 66 2.8 SSW 54 63 29 34 1012.3 - -
24/02:00am 11.9 -0.4 5.3 64 3.0 SSW 59 69 32 37 1012.6 - -
24/01:50am 12.2 0.5 5.4 63 3.2 SW 56 67 30 36 1011.6 - -
24/01:40am 12.0 0.3 5.5 64 3.0 SW 56 65 30 35 1011.3 - -
24/01:30am 11.9 0.3 5.6 65 2.9 SW 56 67 30 36 1011.6 - -
24/01:20am 11.8 0.9 5.7 66 2.8 SSW 52 63 28 34 1012.0 - -
24/01:10am 11.6 1.2 5.9 68 2.7 SSW 50 65 27 35 1011.8 - -
24/01:00am 11.6 0.1 6.3 70 2.5 SSW 56 67 30 36 1012.0 - -
24/12:50am 12.0 0.9 6.5 69 2.6 SSW 54 69 29 37 1011.3 - -
24/12:40am 11.9 1.7 6.8 71 2.4 SW 50 61 27 33 1010.5 - -
24/12:30am 11.8 2.4 7.1 73 2.3 SW 46 59 25 32 1010.7 - -
24/12:20am 11.5 1.3 7.1 74 2.1 SW 50 59 27 32 1010.7 - -
24/12:10am 11.5 1.0 7.4 76 2.0 SSW 52 65 28 35 1011.1 - -
 
Date/Time
EST
Temp
°C
App
Temp
°C
Dew
Point
°C
Rel
Hum
%
Delta-T
°C
Wind Press
QNH
hPa
Press
MSL
hPa
Rain since
9am
mm
Dir  Spd
km/h
Gust
km/h
Spd
kts
Gust
kts
23/11:50pm 11.3 2.1 8.0 80 1.6 SW 46 57 25 31 1010.5 - -
23/11:40pm 11.5 2.6 7.8 78 1.8 SW 44 54 24 29 1010.6 - -
23/11:30pm 11.6 1.2 7.6 76 1.9 SW 52 63 28 34 1010.5 - -
23/11:20pm 11.8 2.5 7.5 75 2.1 SW 46 56 25 30 1010.3 - -
23/11:10pm 12.2 3.3 7.5 73 2.3 SW 44 54 24 29 1010.6 - -
23/11:00pm 13.5 2.8 8.2 70 2.6 WSW 54 70 29 38 1009.7 - -
23/10:50pm 13.5 2.2 8.0 69 2.7 WSW 57 72 31 39 1009.1 - -
23/10:40pm 13.6 2.2 7.5 66 3.0 WSW 57 76 31 41 1009.1 - -
23/10:30pm 14.0 2.5 7.3 64 3.3 W 57 74 31 40 1009.2 - -
23/10:20pm 14.0 2.5 7.1 63 3.4 W 57 69 31 37 1009.2 - -
23/10:10pm 14.0 1.7 6.8 62 3.5 W 61 74 33 40 1009.2 - -
23/10:00pm 14.1 2.6 7.0 62 3.5 W 57 69 31 37 1009.2 - -
23/09:50pm 14.0 2.4 6.8 62 3.5 W 57 74 31 40 1009.2 - -
23/09:40pm 14.1 3.1 7.0 62 3.5 W 54 70 29 38 1009.3 - -
23/09:30pm 14.1 3.1 7.0 62 3.5 W 54 69 29 37 1009.3 - -
23/09:20pm 14.1 2.5 6.7 61 3.6 W 57 70 31 38 1009.2 - -
23/09:10pm 14.1 3.1 6.8 61 3.5 W 54 67 29 36 1009.3 - -
23/09:00pm 14.1 2.0 6.3 59 3.7 W 59 70 32 38 1009.3 - -
23/08:50pm 14.1 1.6 6.2 59 3.8 W 61 72 33 39 1009.2 - -
23/08:40pm 14.1 1.6 6.1 58 3.8 W 61 74 33 40 1009.1 - -
23/08:30pm 14.1 2.0 6.2 59 3.8 W 59 69 32 37 1009.1 - -
23/08:20pm 14.1 1.6 6.2 59 3.8 W 61 70 33 38 1009.2 - -
23/08:10pm 14.1 2.4 6.3 59 3.7 W 57 69 31 37 1009.3 - -
23/08:00pm 14.1 2.9 6.1 58 3.8 W 54 70 29 38 1009.5 - -
23/07:50pm 14.2 3.1 6.2 58 3.8 W 54 67 29 36 1009.5 - -
23/07:40pm 14.2 3.5 6.3 59 3.8 W 52 65 28 35 1009.5 - -
23/07:30pm 14.1 3.3 6.1 58 3.8 W 52 65 28 35 1009.5 - -
23/07:20pm 14.1 4.1 6.1 58 3.8 W 48 61 26 33 1009.6 - -
23/07:10pm 14.1 3.7 5.9 57 3.9 W 50 59 27 32 1009.8 - -
23/07:00pm 14.2 4.2 6.0 58 3.9 W 48 57 26 31 1009.8 - -
23/06:50pm 14.3 4.6 6.0 57 4.0 W 46 57 25 31 1009.8 - -
23/06:40pm 14.3 5.0 6.0 57 4.0 W 44 54 24 29 1009.8 - -
23/06:30pm 14.4 4.8 6.2 58 3.9 W 46 54 25 29 1009.8 - -
23/06:20pm 14.4 4.8 6.1 57 4.0 W 46 57 25 31 1009.7 - -
23/06:10pm 14.4 5.2 6.5 59 3.8 W 44 57 24 31 1009.7 - -
23/06:00pm 14.4 5.2 6.5 59 3.8 W 44 54 24 29 1009.7 - -
23/05:50pm 14.4 4.3 5.8 56 4.1 W 48 57 26 31 1009.7 - -
23/05:40pm 14.4 4.7 5.8 56 4.1 W 46 57 25 31 1009.8 - -
23/05:30pm 14.4 4.3 5.6 55 4.2 WNW 48 59 26 32 1009.6 - -
23/05:20pm 14.4 3.9 5.5 55 4.2 WNW 50 57 27 31 1009.6 - -
23/05:10pm 14.4 4.3 5.6 55 4.2 WNW 48 61 26 33 1009.6 - -
23/05:00pm 14.4 4.2 5.3 54 4.3 WNW 48 59 26 32 1009.7 - -
23/04:50pm 14.4 4.3 5.5 55 4.2 W 48 57 26 31 1009.7 - -
23/04:40pm 14.5 3.9 5.3 54 4.3 WNW 50 61 27 33 1009.7 - -
23/04:30pm 14.5 4.3 5.2 53 4.4 WNW 48 59 26 32 1009.7 - -
23/04:20pm 14.5 4.7 5.1 53 4.4 WNW 46 56 25 30 1009.7 - -
23/04:10pm 14.6 4.7 4.9 52 4.5 WNW 46 54 25 29 1009.8 - -
23/04:00pm 14.6 5.2 5.2 53 4.4 WNW 44 54 24 29 1009.9 - -
23/03:50pm 14.6 5.3 5.2 53 4.4 WNW 43 50 23 27 1009.8 - -
23/03:40pm 14.6 5.2 4.7 51 4.6 WNW 43 52 23 28 1009.9 - -
23/03:30pm 14.5 5.6 5.1 53 4.4 WNW 41 48 22 26 1010.0 - -
23/03:20pm 14.4 7.3 5.5 55 4.2 W 32 37 17 20 1010.3 - -
23/03:10pm 14.3 7.2 5.4 55 4.2 W 32 39 17 21 1010.4 - -
23/03:00pm 14.2 7.1 5.4 55 4.1 W 32 37 17 20 1010.5 - -
23/02:50pm 14.2 6.7 4.7 53 4.4 W 33 39 18 21 1010.5 - -
23/02:40pm 14.2 6.4 4.7 53 4.4 W 35 43 19 23 1010.6 - -
23/02:30pm 14.1 5.8 4.3 51 4.5 W 37 46 20 25 1010.8 - -
23/02:20pm 14.1 5.1 4.4 52 4.5 W 41 46 22 25 1010.9 - -
23/02:10pm 14.0 6.2 4.9 54 4.2 W 35 44 19 24 1011.0 - -
23/02:00pm 14.0 5.7 4.4 52 4.4 W 37 46 20 25 1011.1 - -
23/01:50pm 13.7 6.4 5.4 57 3.9 W 33 41 18 22 1011.3 - -
23/01:40pm 13.5 6.5 5.9 60 3.6 W 32 39 17 21 1011.4 - -
23/01:30pm 13.4 7.1 5.9 60 3.6 WNW 28 33 15 18 1011.8 - -
23/01:20pm 13.4 7.1 5.6 59 3.7 W 28 37 15 20 1011.9 - -
23/01:10pm 13.4 7.0 5.4 58 3.7 W 28 37 15 20 1012.1 - -
23/01:00pm 13.4 7.3 4.9 56 3.9 W 26 32 14 17 1012.2 - -
23/12:50pm 13.5 7.3 4.3 53 4.2 W 26 30 14 16 1012.3 - -
23/12:40pm 13.5 6.9 4.4 54 4.2 W 28 32 15 17 1012.4 - -
23/12:30pm 13.5 7.4 5.0 56 4.0 W 26 30 14 16 1012.6 - -
23/12:20pm 13.5 6.7 5.1 57 3.9 W 30 35 16 19 1012.8 - -
23/12:10pm 13.5 7.6 5.7 59 3.7 W 26 33 14 18 1013.0 - -
23/12:00pm 13.4 7.1 5.6 59 3.7 W 28 33 15 18 1013.2 - -
23/11:50am 13.3 7.4 5.9 61 3.5 W 26 32 14 17 1013.4 - -
23/11:40am 13.3 6.6 5.8 60 3.5 W 30 33 16 18 1013.5 - -
23/11:30am 13.3 7.4 5.9 61 3.5 W 26 30 14 16 1013.8 - -
23/11:20am 13.4 8.0 6.4 62 3.4 W 24 30 13 16 1014.1 - -
23/11:10am 13.3 7.5 6.1 61 3.4 W 26 32 14 17 1014.2 - -
23/11:00am 13.3 7.8 6.1 61 3.4 W 24 30 13 16 1014.4 - -
23/10:50am 13.3 7.9 6.2 62 3.4 W 24 28 13 15 1014.7 - -
23/10:40am 13.4 7.5 6.0 61 3.5 W 26 32 14 17 1014.9 - -
23/10:30am 13.2 7.7 6.0 61 3.4 W 24 30 13 16 1015.2 - -
23/10:20am 13.2 7.7 6.1 62 3.4 W 24 28 13 15 1015.5 - -
23/10:10am 13.2 7.7 5.8 61 3.5 W 24 30 13 16 1015.6 - -
23/10:00am 13.2 7.3 5.7 60 3.5 W 26 30 14 16 1015.8 - -
23/09:50am 13.3 7.8 5.8 60 3.5 W 24 32 13 17 1016.1 - -
23/09:40am 13.3 7.4 6.0 61 3.5 W 26 32 14 17 1016.3 - -
23/09:30am 13.5 8.1 6.2 61 3.5 W 24 32 13 17 1016.4 - -
23/09:20am 13.6 8.1 6.0 60 3.6 W 24 30 13 16 1016.7 - -
23/09:10am 13.5 7.6 5.8 59 3.6 W 26 30 14 16 1016.7 - -
23/09:00am 13.6 8.1 5.8 59 3.7 W 24 30 13 16 1016.9 - -
23/08:50am 13.4 8.3 6.2 61 3.4 W 22 28 12 15 1017.0 - -
23/08:40am 13.5 8.8 6.2 61 3.5 W 20 26 11 14 1017.1 - -
23/08:20am 13.4 7.6 6.4 62 3.4 W 26 30 14 16 1017.2 - -
23/08:10am 13.3 7.6 6.5 63 3.3 W 26 30 14 16 1017.2 - -
23/08:00am 13.3 7.5 6.3 62 3.3 W 26 30 14 16 1017.2 - -
23/07:50am 13.2 7.4 6.4 63 3.3 W 26 32 14 17 1017.3 - -
23/07:40am 12.8 7.0 6.4 65 3.0 W 26 32 14 17 1017.2 - -
23/07:30am 12.8 7.9 6.8 67 2.9 W 22 28 12 15 1017.3 - -
23/07:20am 12.6 8.1 6.8 68 2.8 W 20 24 11 13 1017.4 - -
23/07:10am 12.6 8.0 6.7 67 2.8 W 20 28 11 15 1017.4 - -
23/07:00am 12.7 7.8 6.8 67 2.8 W 22 28 12 15 1017.4 - -
23/06:50am 12.7 7.8 6.8 67 2.8 W 22 32 12 17 1017.4 - -
23/06:40am 12.8 7.5 6.7 66 2.9 W 24 30 13 16 1017.4 - -
23/06:30am 12.9 7.2 6.7 66 3.0 W 26 32 14 17 1017.4 - -
23/06:20am 12.9 7.6 6.8 66 2.9 W 24 30 13 16 1017.4 - -
23/06:10am 12.9 7.3 7.0 67 2.8 W 26 32 14 17 1017.4 - -
23/06:00am 12.9 8.0 7.1 68 2.8 W 22 32 12 17 1017.4 - -
23/05:50am 12.9 7.6 6.8 66 2.9 WNW 24 28 13 15 1017.4 - -
23/05:40am 12.8 7.5 6.7 66 2.9 W 24 30 13 16 1017.3 - -
23/05:30am 12.8 7.2 7.1 68 2.8 W 26 32 14 17 1017.2 - -
23/05:20am 12.8 7.6 7.1 68 2.8 W 24 28 13 15 1017.3 - -
23/05:10am 12.8 7.6 7.3 69 2.7 W 24 30 13 16 1017.4 - -
23/05:00am 12.8 8.6 7.4 69 2.6 W 19 24 10 13 1017.4 - -
23/04:50am 12.8 8.6 7.4 69 2.6 W 19 22 10 12 1017.4 - -
23/04:40am 12.9 8.7 7.4 69 2.7 W 19 24 10 13 1017.3 - -
23/04:30am 13.0 8.8 7.5 69 2.7 W 19 24 10 13 1017.4 - -
23/04:20am 12.9 8.7 7.4 69 2.7 W 19 24 10 13 1017.4 - -
23/04:10am 12.9 8.5 7.4 69 2.7 WNW 20 22 11 12 1017.5 - -
23/04:00am 13.0 9.2 7.4 69 2.7 W 17 22 9 12 1017.6 - -
23/03:50am 12.9 8.6 7.2 68 2.8 W 19 22 10 12 1017.7 - -
23/03:40am 13.0 8.8 7.3 68 2.8 W 19 22 10 12 1018.0 - -
23/03:30am 13.0 9.1 7.3 68 2.8 W 17 22 9 12 1018.1 - -
23/03:20am 13.0 9.1 7.1 67 2.9 W 17 20 9 11 1018.1 - -
23/03:10am 13.1 9.2 7.2 67 2.9 W 17 20 9 11 1018.2 - -
23/03:00am 13.2 9.3 7.2 67 2.9 W 17 19 9 10 1018.4 - -
23/02:50am 13.2 9.3 7.3 67 2.9 W 17 19 9 10 1018.5 - -
23/02:40am 13.2 9.4 7.4 68 2.8 W 17 20 9 11 1018.5 - -
23/02:30am 13.2 8.9 7.2 67 2.9 W 19 22 10 12 1018.6 - -
23/02:20am 13.2 9.3 7.3 67 2.9 W 17 20 9 11 1018.8 - -
23/02:10am 13.3 9.5 7.4 67 2.9 W 17 22 9 12 1018.9 - -
23/02:00am 13.3 9.4 7.2 66 3.0 W 17 22 9 12 1019.1 - -
23/01:50am 13.2 8.9 7.2 67 2.9 W 19 22 10 12 1019.2 - -
23/01:40am 13.3 9.1 7.4 67 2.9 WNW 19 24 10 13 1019.3 - -
23/01:30am 13.2 9.0 7.4 68 2.8 W 19 24 10 13 1019.3 - -
23/01:20am 13.3 9.5 7.5 68 2.8 WNW 17 20 9 11 1019.4 - -
23/01:10am 13.3 9.1 7.4 67 2.9 WNW 19 22 10 12 1019.5 - -
23/01:00am 13.3 9.5 7.4 67 2.9 WNW 17 20 9 11 1019.5 - -
23/12:50am 13.3 9.8 7.3 67 2.9 WNW 15 19 8 10 1019.5 - -
23/12:40am 13.3 9.8 7.1 66 3.0 WNW 15 20 8 11 1019.6 - -
23/12:30am 13.3 9.8 7.2 66 3.0 WNW 15 17 8 9 1019.7 - -
23/12:20am 13.3 10.2 7.1 66 3.0 WNW 13 17 7 9 1019.8 - -
23/12:10am 13.3 10.2 7.1 66 3.0 WNW 13 17 7 9 1020.0 - -
23/12:00am 13.3 9.8 7.0 65 3.1 WNW 15 19 8 10 1020.1 - -
 
Date/Time
EST
Temp
°C
App
Temp
°C
Dew
Point
°C
Rel
Hum
%
Delta-T
°C
Wind Press
QNH
hPa
Press
MSL
hPa
Rain since
9am
mm
Dir  Spd
km/h
Gust
km/h
Spd
kts
Gust
kts
22/11:50pm 13.3 9.7 6.8 64 3.1 WNW 15 20 8 11 1020.3 - -
22/11:40pm 13.2 9.2 6.7 64 3.1 WNW 17 19 9 10 1020.4 - -
22/11:30pm 13.2 9.1 6.4 63 3.3 WNW 17 19 9 10 1020.5 - -
22/11:20pm 13.2 9.1 6.0 61 3.4 WNW 17 20 9 11 1020.6 - -
22/11:10pm 13.2 9.1 6.1 62 3.4 WNW 17 20 9 11 1020.6 - -
22/11:00pm 13.3 9.6 6.4 63 3.3 NW 15 19 8 10 1020.8 - -
22/10:50pm 13.3 9.1 5.9 61 3.5 WNW 17 22 9 12 1020.9 - -
22/10:40pm 13.3 9.1 5.8 60 3.5 WNW 17 22 9 12 1021.2 - -
22/10:30pm 13.2 9.1 6.1 62 3.4 WNW 17 20 9 11 1021.3 - -
22/10:20pm 13.2 9.1 6.0 61 3.4 NW 17 20 9 11 1021.3 - -
22/10:10pm 13.2 9.0 5.8 61 3.5 NW 17 20 9 11 1021.3 - -
22/10:00pm 13.1 9.3 5.7 61 3.5 WNW 15 20 8 11 1021.3 - -
22/09:50pm 13.2 9.8 5.7 60 3.5 NW 13 17 7 9 1021.4 - -
22/09:40pm 13.2 10.1 5.6 60 3.6 WNW 11 15 6 8 1021.6 - -
22/09:30pm 13.2 10.1 5.4 59 3.6 WNW 11 15 6 8 1021.9 - -
22/09:20pm 13.1 10.4 5.6 60 3.5 WNW 9 15 5 8 1022.0 - -
22/09:10pm 13.1 10.3 5.3 59 3.6 WNW 9 13 5 7 1022.1 - -
22/09:00pm 13.0 10.6 5.4 60 3.5 W 7 11 4 6 1022.2 - -
22/08:50pm 13.0 10.8 5.5 60 3.5 W 6 9 3 5 1022.3 - -
22/08:40pm 12.9 10.7 5.5 60 3.5 W 6 7 3 4 1022.5 - -
22/08:30pm 12.9 11.1 5.5 60 3.5 W 4 6 2 3 1022.5 - -
22/08:20pm 12.9 11.5 5.6 61 3.4 W 2 4 1 2 1022.5 - -
22/08:10pm 12.9 11.5 5.5 60 3.5 WSW 2 4 1 2 1022.5 - -
22/08:00pm 12.9 11.9 5.4 60 3.5 CALM 0 2 0 1 1022.6 - -
22/07:50pm 12.9 11.5 5.5 60 3.5 WSW 2 6 1 3 1022.6 - -
22/07:40pm 12.9 11.5 5.5 60 3.5 SW 2 6 1 3 1022.7 - -
22/07:30pm 12.7 11.3 5.5 61 3.4 WSW 2 6 1 3 1022.9 - -
22/07:20pm 12.7 10.5 5.4 61 3.4 WSW 6 9 3 5 1023.0 - -
22/07:10pm 12.7 10.3 5.3 60 3.4 WSW 7 13 4 7 1023.1 - -
22/07:00pm 12.6 10.2 5.4 61 3.4 WSW 7 11 4 6 1023.1 - -
22/06:50pm 12.6 9.9 5.5 62 3.3 W 9 15 5 8 1023.2 - -
22/06:40pm 12.5 10.2 5.6 63 3.2 W 7 13 4 7 1023.2 - -
22/06:30pm 12.4 10.1 5.6 63 3.2 W 7 13 4 7 1023.3 - -
22/06:20pm 12.3 10.2 5.6 63 3.1 W 6 13 3 7 1023.4 - -
22/06:00pm 12.1 10.0 5.7 65 3.0 WSW 6 11 3 6 1023.4 - -
22/05:50pm 11.9 9.2 5.5 65 3.0 WSW 9 13 5 7 1023.4 - -
22/05:40pm 11.8 9.1 5.5 65 2.9 WSW 9 13 5 7 1023.4 - -
22/05:30pm 11.8 8.7 5.6 66 2.9 WSW 11 15 6 8 1023.4 - -
22/05:20pm 11.7 8.2 5.5 66 2.9 WSW 13 19 7 10 1023.4 - -
22/05:10pm 11.8 8.7 5.6 66 2.9 WSW 11 19 6 10 1023.4 - -
22/05:00pm 11.7 8.6 5.7 66 2.8 WSW 11 15 6 8 1023.5 - -
22/04:50pm 11.4 8.5 6.3 71 2.4 WSW 11 17 6 9 1023.5 - -
22/04:40pm 11.6 9.8 7.3 75 2.1 WSW 6 17 3 9 1023.7 - -
22/04:30pm 11.7 10.7 7.5 75 2.0 WSW 2 6 1 3 1023.6 - -
22/04:20pm 11.7 10.8 7.6 76 2.0 WSW 2 4 1 2 1023.7 - -
22/04:10pm 11.8 10.9 7.6 75 2.0 WSW 2 6 1 3 1023.8 - -
22/04:00pm 11.8 10.5 7.5 75 2.1 WSW 4 7 2 4 1023.9 - -
22/03:50pm 11.8 10.4 7.3 74 2.2 WSW 4 11 2 6 1024.0 - -
22/03:40pm 11.8 10.4 7.3 74 2.2 WSW 4 6 2 3 1023.9 - -
22/03:30pm 11.8 10.8 7.3 74 2.2 WSW 2 6 1 3 1024.0 - -
22/03:20pm 11.9 10.5 7.4 74 2.2 SW 4 7 2 4 1023.9 - -
22/03:10pm 11.8 10.8 7.5 75 2.1 SW 2 7 1 4 1023.9 - -
22/03:00pm 11.8 10.1 7.5 75 2.1 SW 6 9 3 5 1024.0 - -
22/02:50pm 11.8 9.6 7.7 76 2.0 SW 9 15 5 8 1024.1 - -
22/02:40pm 11.8 9.2 7.9 77 1.9 SW 11 15 6 8 1024.1 - -
22/02:30pm 11.9 9.4 8.1 77 1.9 SW 11 15 6 8 1024.1 - -
22/02:20pm 12.0 9.1 8.3 78 1.8 SW 13 19 7 10 1024.1 - -
22/02:10pm 12.2 9.4 8.5 78 1.8 SW 13 20 7 11 1024.2 - -
22/02:00pm 12.3 9.5 8.5 77 1.9 SW 13 17 7 9 1024.3 - -
22/01:50pm 12.3 9.8 8.4 77 1.9 SW 11 17 6 9 1024.4 - -
22/01:40pm 12.4 10.7 8.3 76 2.0 SW 7 15 4 8 1024.4 - -
22/01:30pm 12.7 10.7 8.5 75 2.1 SW 9 17 5 9 1024.4 - -
22/01:20pm 12.9 12.2 8.5 74 2.2 WSW 2 6 1 3 1024.5 - -
22/01:10pm 12.8 12.1 8.5 75 2.1 SW 2 7 1 4 1024.6 - -
22/01:00pm 12.7 12.3 8.2 74 2.2 CALM 0 4 0 2 1024.7 - -
22/12:50pm 12.8 12.0 8.2 73 2.3 SW 2 7 1 4 1024.9 - -
22/12:40pm 12.7 11.1 8.0 73 2.3 SW 6 11 3 6 1025.2 - -
22/12:30pm 12.8 10.6 7.9 72 2.4 SW 9 15 5 8 1025.3 - -
22/12:20pm 13.3 10.0 8.0 70 2.6 SW 15 20 8 11 1025.4 - -
22/12:10pm 13.8 10.5 7.9 67 2.9 WSW 15 26 8 14 1025.4 - -
22/12:00pm 14.1 12.2 7.7 65 3.2 SW 7 13 4 7 1025.4 - -
22/11:50am 14.3 13.4 7.7 64 3.3 SW 2 11 1 6 1025.5 - -
22/11:40am 14.4 12.8 7.8 64 3.3 SW 6 9 3 5 1025.6 - -
22/11:30am 14.5 12.8 7.7 63 3.4 SW 6 9 3 5 1025.7 - -
22/11:20am 14.5 13.9 7.3 62 3.5 CALM 0 4 0 2 1025.9 - -
22/11:10am 14.4 13.6 6.4 58 3.9 CALM 0 2 0 1 1026.1 - -
22/11:00am 14.4 13.5 6.2 58 3.9 CALM 0 4 0 2 1026.2 - -
22/10:50am 14.7 13.8 6.1 56 4.1 CALM 0 2 0 1 1026.3 - -
22/10:40am 14.9 14.0 6.1 55 4.2 CALM 0 2 0 1 1026.4 - -
22/10:30am 15.1 14.3 6.3 55 4.3 CALM 0 0 0 0 1026.5 - -
22/10:20am 14.3 13.4 6.0 57 4.0 CALM 0 0 0 0 1026.5 - -
22/10:10am 14.3 13.4 5.9 57 4.0 CALM 0 0 0 0 1026.6 - -
22/10:00am 14.2 13.3 5.9 57 4.0 CALM 0 0 0 0 1026.7 - -
22/09:50am 14.2 13.2 5.6 56 4.1 CALM 0 0 0 0 1026.9 - -
22/09:40am 14.1 13.1 5.8 57 3.9 CALM 0 0 0 0 1027.1 - -
22/09:30am 14.0 13.0 5.6 57 4.0 CALM 0 0 0 0 1027.2 - -
22/09:20am 13.9 12.9 5.5 57 4.0 CALM 0 0 0 0 1027.3 - -
22/09:10am 14.2 13.2 5.7 56 4.0 CALM 0 0 0 0 1027.4 - -
22/09:00am 14.0 13.0 5.6 57 4.0 CALM 0 0 0 0 1027.5 - -
22/08:50am 13.7 12.7 5.6 58 3.8 CALM 0 0 0 0 1027.6 - -
22/08:40am 13.7 12.6 5.3 57 3.9 CALM 0 0 0 0 1027.5 - -
22/08:30am 13.7 12.6 5.3 57 3.9 CALM 0 0 0 0 1027.5 - -
22/08:20am 13.7 12.7 5.6 58 3.8 CALM 0 0 0 0 1027.6 - -
22/08:10am 13.5 12.4 5.2 57 3.9 CALM 0 0 0 0 1027.6 - -
22/08:00am 13.5 12.4 5.2 57 3.9 CALM 0 0 0 0 1027.5 - -
22/07:50am 13.3 12.2 5.3 58 3.7 CALM 0 0 0 0 1027.5 - -
22/07:40am 12.8 11.7 5.1 59 3.6 CALM 0 0 0 0 1027.5 - -
22/07:30am 12.9 11.8 5.3 60 3.5 CALM 0 0 0 0 1027.5 - -
22/07:20am 13.1 12.0 5.1 58 3.7 CALM 0 0 0 0 1027.5 - -
22/07:10am 13.0 11.9 5.1 58 3.7 CALM 0 0 0 0 1027.5 - -
22/07:00am 12.9 11.8 5.1 59 3.6 CALM 0 0 0 0 1027.5 - -
22/06:50am 13.0 11.9 5.0 58 3.7 CALM 0 0 0 0 1027.5 - -
22/06:40am 13.1 12.0 5.2 58 3.7 CALM 0 0 0 0 1027.5 - -
22/06:30am 12.6 11.5 5.0 60 3.5 CALM 0 0 0 0 1027.5 - -
22/06:20am 12.5 11.3 4.8 59 3.5 CALM 0 0 0 0 1027.5 - -
22/06:10am 12.4 11.3 4.9 60 3.4 CALM 0 0 0 0 1027.5 - -
22/06:00am 12.3 11.2 5.0 61 3.4 CALM 0 0 0 0 1027.5 - -
22/05:50am 12.3 11.1 4.7 60 3.5 CALM 0 0 0 0 1027.4 - -
22/05:40am 12.3 11.1 4.8 60 3.4 CALM 0 0 0 0 1027.4 - -
22/05:30am 12.3 11.2 4.9 60 3.4 CALM 0 0 0 0 1027.4 - -
22/05:20am 12.2 11.1 4.9 61 3.4 CALM 0 2 0 1 1027.3 - -
22/05:10am 12.2 11.0 4.7 60 3.4 CALM 0 2 0 1 1027.2 - -
22/05:00am 12.2 11.0 4.8 60 3.4 CALM 0 0 0 0 1027.3 - -
22/04:50am 12.2 11.1 5.0 61 3.3 CALM 0 2 0 1 1027.3 - -
22/04:40am 12.2 11.1 4.9 61 3.4 CALM 0 0 0 0 1027.2 - -
22/04:30am 12.2 11.0 4.8 60 3.4 CALM 0 0 0 0 1027.2 - -
22/04:20am 12.2 11.0 4.7 60 3.4 CALM 0 0 0 0 1027.2 - -
22/04:10am 12.2 11.0 4.7 60 3.4 CALM 0 0 0 0 1027.2 - -
22/04:00am 12.1 10.9 4.7 60 3.4 CALM 0 0 0 0 1027.3 - -
22/03:50am 12.2 11.0 4.8 60 3.4 CALM 0 0 0 0 1027.3 - -
22/03:40am 12.1 10.9 4.5 59 3.5 CALM 0 2 0 1 1027.2 - -
22/03:30am 12.1 10.9 4.4 59 3.5 CALM 0 0 0 0 1027.2 - -
22/03:20am 12.1 10.9 4.4 59 3.5 CALM 0 4 0 2 1027.3 - -
22/03:10am 12.1 10.5 4.4 59 3.5 SSE 2 4 1 2 1027.3 - -
22/03:00am 12.1 10.9 4.5 59 3.5 CALM 0 2 0 1 1027.4 - -
22/02:50am 12.1 10.9 4.4 59 3.5 CALM 0 4 0 2 1027.3 - -
22/02:40am 12.1 10.8 4.3 59 3.5 CALM 0 2 0 1 1027.4 - -
22/02:30am 12.2 10.9 4.3 58 3.6 CALM 0 0 0 0 1027.5 - -
22/02:20am 12.2 11.0 4.4 59 3.5 CALM 0 0 0 0 1027.5 - -
22/02:10am 12.1 10.9 4.5 59 3.5 CALM 0 0 0 0 1027.6 - -
22/01:50am 12.2 11.0 4.5 59 3.5 CALM 0 0 0 0 1027.8 - -
22/01:40am 12.1 10.9 4.5 59 3.5 CALM 0 2 0 1 1027.9 - -
22/01:30am 12.1 10.9 4.5 59 3.5 CALM 0 2 0 1 1027.9 - -
22/01:20am 12.1 10.9 4.7 60 3.4 CALM 0 0 0 0 1027.8 - -
22/01:10am 12.1 10.9 4.7 60 3.4 CALM 0 0 0 0 1027.9 - -
22/01:00am 12.1 10.9 4.8 61 3.3 CALM 0 0 0 0 1027.8 - -
22/12:50am 12.1 11.0 4.9 61 3.3 CALM 0 0 0 0 1027.9 - -
22/12:40am 12.1 11.0 5.0 62 3.3 CALM 0 2 0 1 1027.9 - -
22/12:30am 12.1 10.6 5.1 62 3.2 S 2 4 1 2 1028.1 - -
22/12:20am 12.2 11.1 5.0 61 3.3 CALM 0 4 0 2 1028.2 - -
22/12:10am 12.2 11.1 5.1 62 3.3 CALM 0 2 0 1 1028.3 - -
22/12:00am 12.1 11.0 5.1 62 3.2 CALM 0 4 0 2 1028.3 - -
 
Date/Time
EST
Temp
°C
App
Temp
°C
Dew
Point
°C
Rel
Hum
%
Delta-T
°C
Wind Press
QNH
hPa
Press
MSL
hPa
Rain since
9am
mm
Dir  Spd
km/h
Gust
km/h
Spd
kts
Gust
kts
21/11:50pm 12.1 11.0 5.1 62 3.2 CALM 0 2 0 1 1028.3 - -
21/11:40pm 12.2 11.1 5.2 62 3.2 CALM 0 2 0 1 1028.3 - -
21/11:30pm 12.1 11.0 5.3 63 3.1 CALM 0 0 0 0 1028.4 - -
21/11:20pm 12.1 11.0 5.3 63 3.1 CALM 0 0 0 0 1028.5 - -
21/11:10pm 12.1 11.0 5.2 62 3.2 CALM 0 2 0 1 1028.5 - -
21/11:00pm 12.1 11.0 5.3 63 3.1 CALM 0 0 0 0 1028.7 - -
21/10:50pm 12.0 10.9 5.2 63 3.1 CALM 0 2 0 1 1028.8 - -
21/10:40pm 12.0 11.0 5.4 64 3.1 CALM 0 2 0 1 1028.9 - -
21/10:30pm 12.1 10.7 5.5 64 3.1 S 2 6 1 3 1029.0 - -
21/10:20pm 12.0 10.6 5.5 64 3.0 S 2 7 1 4 1029.0 - -
21/10:10pm 12.1 10.4 5.7 65 3.0 SSE 4 7 2 4 1029.0 - -
21/10:00pm 12.0 10.6 5.7 65 2.9 SE 2 7 1 4 1029.0 - -
21/09:50pm 12.0 9.9 5.7 65 2.9 SE 6 11 3 6 1028.9 - -
21/09:40pm 11.9 9.8 5.6 65 2.9 SE 6 11 3 6 1029.0 - -
21/09:30pm 11.8 9.7 5.8 66 2.8 SSE 6 11 3 6 1029.1 - -
21/09:20pm 11.8 9.7 6.0 67 2.7 S 6 9 3 5 1029.1 - -
21/09:10pm 11.8 9.8 6.3 69 2.6 S 6 9 3 5 1029.2 - -
21/09:00pm 11.8 9.6 6.4 69 2.6 S 7 11 4 6 1029.2 - -
21/08:50pm 11.8 8.9 6.4 69 2.6 S 11 15 6 8 1029.2 - -
21/08:40pm 11.8 9.6 6.2 68 2.6 SSE 7 13 4 7 1029.1 - -
21/08:30pm 11.6 9.6 6.3 70 2.5 S 6 11 3 6 1029.1 - -
21/08:20pm 11.6 9.5 6.5 71 2.4 S 7 11 4 6 1029.2 - -
21/08:10pm 11.6 9.1 6.6 71 2.4 S 9 17 5 9 1029.3 - -
21/08:00pm 11.7 8.5 6.7 71 2.4 S 13 17 7 9 1029.3 - -
21/07:50pm 11.8 8.6 6.7 71 2.4 S 13 19 7 10 1029.2 - -
21/07:40pm 12.0 8.4 6.7 70 2.5 S 15 19 8 10 1029.1 - -
21/07:30pm 11.9 9.0 6.4 69 2.6 S 11 19 6 10 1029.0 - -
21/07:20pm 12.0 8.7 6.5 69 2.6 S 13 17 7 9 1029.1 - -
21/07:10pm 12.0 8.7 6.3 68 2.7 SSW 13 19 7 10 1029.1 - -
21/07:00pm 12.2 8.5 6.4 67 2.8 SSW 15 19 8 10 1029.1 - -
21/06:50pm 12.3 9.0 6.3 67 2.8 SSW 13 19 7 10 1029.1 - -
21/06:40pm 12.2 8.5 6.1 66 2.9 SSW 15 19 8 10 1028.9 - -
21/06:30pm 12.1 9.1 6.0 66 2.9 S 11 20 6 11 1029.0 - -
21/06:20pm 12.1 8.3 6.0 66 2.9 S 15 20 8 11 1028.9 - -
21/06:10pm 12.0 7.8 5.9 66 2.9 S 17 20 9 11 1028.8 - -
21/06:00pm 11.9 7.4 6.2 68 2.7 S 19 24 10 13 1028.8 - -
21/05:50pm 11.9 7.3 6.3 68 2.6 S 20 24 11 13 1028.9 - -
21/05:40pm 11.9 7.8 6.3 68 2.6 S 17 24 9 13 1028.7 - -
21/05:30pm 11.9 7.5 6.4 69 2.6 S 19 28 10 15 1028.8 - -
21/05:20pm 11.9 7.3 6.5 69 2.6 S 20 26 11 14 1028.7 - -
21/05:10pm 12.1 6.3 6.3 67 2.7 S 26 30 14 16 1028.7 - -
21/05:00pm 12.3 6.4 5.8 64 3.0 S 26 30 14 16 1028.7 - -
21/04:50pm 12.3 5.7 6.1 66 2.9 S 30 37 16 20 1028.6 - -
21/04:40pm 12.3 6.4 6.0 65 3.0 SSW 26 30 14 16 1028.5 - -
21/04:30pm 12.3 6.5 6.1 66 2.9 S 26 32 14 17 1028.3 - -
21/04:20pm 12.3 6.8 6.1 66 2.9 S 24 30 13 16 1028.3 - -
21/04:10pm 12.4 6.6 6.1 65 3.0 S 26 32 14 17 1028.1 - -
21/04:00pm 12.4 6.9 5.9 64 3.1 S 24 32 13 17 1028.1 - -
21/03:50pm 12.4 6.8 5.6 63 3.2 S 24 30 13 16 1028.0 - -
21/03:40pm 12.4 6.8 5.6 63 3.2 SSW 24 30 13 16 1027.9 - -
21/03:30pm 12.5 6.6 5.7 63 3.2 SSW 26 30 14 16 1027.9 - -
21/03:20pm 12.5 6.9 5.5 62 3.3 SSW 24 30 13 16 1027.8 - -
21/03:10pm 12.6 6.7 5.7 63 3.2 SSW 26 32 14 17 1027.8 - -
21/03:00pm 12.6 6.7 5.7 63 3.2 SSW 26 35 14 19 1027.7 - -
21/02:50pm 12.8 7.3 6.1 64 3.2 SSW 24 41 13 22 1027.6 - -
21/02:40pm 12.8 6.9 5.6 61 3.4 SSW 26 32 14 17 1027.5 - -
21/02:30pm 12.9 6.9 5.4 60 3.5 SSW 26 35 14 19 1027.5 - -
21/02:20pm 13.0 7.0 5.1 58 3.7 SSW 26 33 14 18 1027.5 - -
21/02:10pm 13.1 7.0 4.8 57 3.8 SSW 26 32 14 17 1027.2 - -
21/02:00pm 13.3 6.4 4.4 55 4.1 SSW 30 35 16 19 1027.3 - -
21/01:50pm 13.6 7.9 4.7 55 4.1 SSW 24 32 13 17 1027.0 - -
21/01:40pm 13.6 7.4 4.4 53 4.2 SSW 26 33 14 18 1026.8 - -
21/01:30pm 13.4 7.3 4.6 55 4.1 SSW 26 35 14 19 1026.7 - -
21/01:20pm 13.3 7.2 5.0 57 3.9 SSW 26 32 14 17 1026.9 - -
21/01:10pm 13.3 7.3 5.2 58 3.8 SSW 26 33 14 18 1026.9 - -

Other Formats:

Comma delimited format used in spreadsheet applications
http://www.bom.gov.au/fwo/IDV60801/IDV60801.55039.axf

JavaScript Object Notation format (JSON) in row-major order
http://www.bom.gov.au/fwo/IDV60801/IDV60801.55039.json